createdAt,value
2023-04-02T00:00:17.964Z,100.00
2023-04-02T00:02:50.369Z,100.00
2023-04-02T00:05:55.056Z,100.00
2023-04-02T00:08:28.659Z,100.00
2023-04-02T00:11:00.343Z,100.00
2023-04-02T00:13:37.064Z,100.00
2023-04-02T00:16:14.486Z,100.00
2023-04-02T00:18:49.248Z,100.00
2023-04-02T00:21:24.091Z,100.00
2023-04-02T00:23:56.780Z,100.00
2023-04-02T00:26:32.875Z,100.00
2023-04-02T00:29:03.807Z,100.00
2023-04-02T00:31:37.688Z,100.00
2023-04-02T00:34:11.731Z,100.00
2023-04-02T00:36:42.084Z,100.00
2023-04-02T00:39:19.733Z,100.00
2023-04-02T00:41:49.873Z,100.00
2023-04-02T00:44:22.330Z,100.00
2023-04-02T00:46:55.462Z,100.00
2023-04-02T00:49:32.823Z,100.00
2023-04-02T00:52:05.670Z,100.00
2023-04-02T00:54:42.840Z,100.00
2023-04-02T00:57:20.380Z,100.00
2023-04-02T00:59:59.891Z,100.00
2023-04-02T01:02:35.955Z,100.00
2023-04-02T01:05:23.132Z,100.00
2023-04-02T01:08:08.968Z,100.00
2023-04-02T01:10:55.649Z,100.00
2023-04-02T01:13:33.767Z,100.00
2023-04-02T01:16:09.531Z,100.00
2023-04-02T01:18:52.448Z,100.00
2023-04-02T01:21:54.435Z,100.00
2023-04-02T01:24:28.345Z,100.00
2023-04-02T01:27:01.258Z,100.00
2023-04-02T01:29:36.016Z,100.00
2023-04-02T01:32:08.582Z,100.00
2023-04-02T01:34:38.966Z,100.00
2023-04-02T01:37:27.619Z,100.00
2023-04-02T01:40:17.452Z,100.00
2023-04-02T01:42:56.190Z,100.00
2023-04-02T01:45:29.001Z,100.00
2023-04-02T01:47:59.431Z,100.00
2023-04-02T01:50:37.298Z,100.00
2023-04-02T01:53:11.362Z,100.00
2023-04-02T01:55:44.646Z,100.00
2023-04-02T01:58:15.501Z,100.00
2023-04-02T02:00:52.567Z,100.00
2023-04-02T02:03:23.576Z,100.00
2023-04-02T02:05:54.217Z,100.00
2023-04-02T02:08:35.871Z,100.00
2023-04-02T02:11:06.572Z,100.00
2023-04-02T02:13:36.927Z,100.00
2023-04-02T02:16:14.974Z,100.00
2023-04-02T02:18:45.112Z,100.00
2023-04-02T02:21:24.970Z,100.00
2023-04-02T02:23:55.521Z,100.00
2023-04-02T02:26:28.429Z,100.00
2023-04-02T02:29:00.634Z,100.00
2023-04-02T02:31:35.545Z,100.00
2023-04-02T02:34:11.664Z,100.00
2023-04-02T02:36:50.860Z,100.00
2023-04-02T02:39:28.190Z,100.00
2023-04-02T02:42:03.750Z,100.00
2023-04-02T02:44:38.036Z,100.00
2023-04-02T02:47:14.698Z,100.00
2023-04-02T02:49:47.408Z,100.00
2023-04-02T02:52:19.793Z,100.00
2023-04-02T02:54:59.462Z,100.00
2023-04-02T02:57:36.266Z,100.00
2023-04-02T03:00:11.222Z,100.00
2023-04-02T03:02:45.010Z,100.00
2023-04-02T03:05:20.786Z,100.00
2023-04-02T03:07:54.538Z,100.00
2023-04-02T03:10:32.578Z,100.00
2023-04-02T03:13:11.274Z,100.00
2023-04-02T03:15:45.942Z,100.00
2023-04-02T03:18:28.532Z,100.00
2023-04-02T03:21:03.555Z,100.00
2023-04-02T03:23:39.300Z,100.00
2023-04-02T03:26:14.248Z,100.00
2023-04-02T03:28:49.680Z,100.00
2023-04-02T03:31:26.658Z,100.00
2023-04-02T03:34:04.234Z,100.00
2023-04-02T03:36:43.733Z,100.00
2023-04-02T03:39:21.559Z,100.00
2023-04-02T03:41:58.602Z,100.00
2023-04-02T03:44:33.757Z,100.00
2023-04-02T03:47:13.224Z,100.00
2023-04-02T03:49:50.501Z,100.00
2023-04-02T03:52:25.709Z,100.00
2023-04-02T03:54:57.536Z,100.00
2023-04-02T03:57:33.136Z,100.00
2023-04-02T04:00:07.963Z,100.00
2023-04-02T04:02:48.207Z,100.00
2023-04-02T04:05:28.152Z,100.00
2023-04-02T04:08:04.970Z,100.00
2023-04-02T04:10:35.525Z,100.00
2023-04-02T04:13:10.043Z,100.00
2023-04-02T04:15:45.839Z,100.00
2023-04-02T04:18:30.042Z,100.00
2023-04-02T04:21:05.288Z,100.00
2023-04-02T04:23:50.826Z,100.00
2023-04-02T04:26:27.013Z,100.00
2023-04-02T04:29:09.825Z,100.00
2023-04-02T04:31:47.269Z,100.00
2023-04-02T04:34:23.276Z,100.00
2023-04-02T04:37:02.069Z,100.00
2023-04-02T04:39:45.577Z,100.00
2023-04-02T04:42:22.438Z,100.00
2023-04-02T04:44:57.882Z,100.00
2023-04-02T04:47:33.731Z,100.00
2023-04-02T04:50:09.997Z,100.00
2023-04-02T04:52:46.068Z,100.00
2023-04-02T04:55:29.370Z,100.00
2023-04-02T04:58:06.236Z,100.00
2023-04-02T05:00:45.341Z,100.00
2023-04-02T05:03:22.910Z,100.00
2023-04-02T05:05:54.210Z,100.00
2023-04-02T05:08:33.383Z,100.00
2023-04-02T05:11:08.273Z,100.00
2023-04-02T05:13:43.555Z,100.00
2023-04-02T05:16:21.792Z,100.00
2023-04-02T05:18:56.380Z,100.00
2023-04-02T05:21:31.569Z,100.00
2023-04-02T05:24:22.755Z,100.00
2023-04-02T05:26:54.860Z,100.00
2023-04-02T05:29:29.420Z,100.00
2023-04-02T05:32:04.745Z,100.00
2023-04-02T05:34:37.334Z,100.00
2023-04-02T05:37:09.392Z,100.00
2023-04-02T05:39:47.401Z,100.00
2023-04-02T05:42:23.489Z,100.00
2023-04-02T05:45:11.459Z,100.00
2023-04-02T05:47:44.237Z,100.00
2023-04-02T05:50:26.454Z,100.00
2023-04-02T05:53:01.512Z,100.00
2023-04-02T05:55:44.631Z,100.00
2023-04-02T05:58:35.301Z,100.00
2023-04-02T06:01:30.151Z,100.00
2023-04-02T06:04:09.276Z,100.00
2023-04-02T06:06:50.169Z,100.00
2023-04-02T06:09:27.769Z,100.00
2023-04-02T06:12:07.188Z,100.00
2023-04-02T06:14:37.521Z,100.00
2023-04-02T06:17:07.730Z,100.00
2023-04-02T06:19:41.266Z,100.00
2023-04-02T06:22:19.426Z,100.00
2023-04-02T06:24:52.986Z,100.00
2023-04-02T06:27:28.893Z,100.00
2023-04-02T06:30:05.374Z,100.00
2023-04-02T06:32:35.679Z,100.00
2023-04-02T06:35:05.629Z,100.00
2023-04-02T06:37:39.233Z,100.00
2023-04-02T06:40:35.235Z,100.00
2023-04-02T06:43:20.068Z,100.00
2023-04-02T06:46:02.498Z,100.00
2023-04-02T06:48:49.592Z,100.00
2023-04-02T06:51:23.431Z,100.00
2023-04-02T06:53:53.680Z,100.00
2023-04-02T06:56:31.981Z,100.00
2023-04-02T06:59:07.570Z,100.00
2023-04-02T07:01:42.658Z,100.00
2023-04-02T07:04:13.138Z,100.00
2023-04-02T07:06:46.123Z,100.00
2023-04-02T07:09:17.739Z,100.00
2023-04-02T07:11:52.345Z,100.00
2023-04-02T07:14:25.437Z,100.00
2023-04-02T07:16:55.866Z,100.00
2023-04-02T07:19:26.166Z,100.00
2023-04-02T07:21:59.112Z,100.00
2023-04-02T07:24:34.357Z,100.00
2023-04-02T07:27:04.069Z,100.00
2023-04-02T07:29:37.581Z,100.00
2023-04-02T07:32:07.678Z,100.00
2023-04-02T07:34:37.365Z,100.00
2023-04-02T07:37:07.596Z,100.00
2023-04-02T07:39:39.480Z,100.00
2023-04-02T07:42:10.556Z,100.00
2023-04-02T07:44:42.837Z,100.00
2023-04-02T07:47:12.629Z,100.00
2023-04-02T07:49:42.284Z,100.00
2023-04-02T07:52:12.046Z,100.00
2023-04-02T07:54:41.790Z,100.00
2023-04-02T07:57:11.617Z,100.00
2023-04-02T07:59:46.486Z,100.00
2023-04-02T08:02:22.550Z,100.00
2023-04-02T08:04:52.826Z,100.00
2023-04-02T08:07:22.506Z,100.00
2023-04-02T08:09:52.240Z,100.00
2023-04-02T08:12:22.283Z,100.00
2023-04-02T08:14:54.610Z,100.00
2023-04-02T08:17:24.528Z,100.00
2023-04-02T08:19:56.207Z,100.00
2023-04-02T08:22:25.855Z,100.00
2023-04-02T08:24:56.500Z,100.00
2023-04-02T08:27:26.529Z,100.00
2023-04-02T08:29:59.016Z,100.00
2023-04-02T08:32:29.244Z,100.00
2023-04-02T08:34:59.092Z,100.00
2023-04-02T08:37:28.865Z,100.00
2023-04-02T08:39:58.524Z,100.00
2023-04-02T08:42:36.033Z,100.00
2023-04-02T08:45:25.425Z,100.00
2023-04-02T08:48:00.127Z,100.00
2023-04-02T08:50:34.746Z,100.00
2023-04-02T08:53:07.324Z,100.00
2023-04-02T08:55:43.034Z,100.00
2023-04-02T08:58:20.996Z,100.00
2023-04-02T09:00:57.050Z,100.00
2023-04-02T09:03:31.672Z,100.00
2023-04-02T09:06:03.234Z,100.00
2023-04-02T09:08:35.636Z,100.00
2023-04-02T09:11:09.775Z,100.00
2023-04-02T09:13:46.680Z,100.00
2023-04-02T09:16:22.647Z,100.00
2023-04-02T09:18:55.863Z,100.00
2023-04-02T09:21:37.821Z,100.00
2023-04-02T09:24:08.196Z,100.00
2023-04-02T09:26:37.841Z,100.00
2023-04-02T09:29:28.092Z,100.00
2023-04-02T09:32:10.252Z,100.00
2023-04-02T09:34:39.948Z,100.00
2023-04-02T09:37:11.693Z,100.00
2023-04-02T09:39:41.360Z,100.00
2023-04-02T09:42:11.652Z,100.00
2023-04-02T09:44:41.413Z,100.00
2023-04-02T09:47:29.176Z,100.00
2023-04-02T09:50:16.856Z,100.00
2023-04-02T09:52:46.616Z,100.00
2023-04-02T09:55:24.299Z,100.00
2023-04-02T09:57:54.594Z,100.00
2023-04-02T10:00:32.136Z,100.00
2023-04-02T10:03:08.606Z,100.00
2023-04-02T10:05:41.212Z,100.00
2023-04-02T10:08:21.435Z,100.00
2023-04-02T10:10:53.895Z,100.00
2023-04-02T10:13:30.462Z,100.00
2023-04-02T10:16:04.631Z,100.00
2023-04-02T10:18:47.666Z,100.00
2023-04-02T10:21:21.481Z,100.00
2023-04-02T10:23:51.655Z,100.00
2023-04-02T10:26:44.075Z,100.00
2023-04-02T10:29:39.129Z,100.00
2023-04-02T10:32:14.786Z,100.00
2023-04-02T10:34:55.784Z,100.00
2023-04-02T10:37:55.999Z,100.00
2023-04-02T10:40:31.254Z,100.00
2023-04-02T10:43:31.017Z,100.00
2023-04-02T10:46:06.412Z,100.00
2023-04-02T10:48:43.309Z,100.00
2023-04-02T10:51:28.280Z,100.00
2023-04-02T10:54:06.011Z,100.00
2023-04-02T10:56:48.050Z,100.00
2023-04-02T10:59:26.301Z,100.00
2023-04-02T11:01:59.615Z,100.00
2023-04-02T11:04:33.961Z,100.00
2023-04-02T11:07:14.439Z,100.00
2023-04-02T11:09:46.899Z,100.00
2023-04-02T11:12:24.753Z,100.00
2023-04-02T11:14:56.941Z,100.00
2023-04-02T11:17:27.788Z,100.00
2023-04-02T11:19:57.497Z,100.00
2023-04-02T11:22:29.861Z,100.00
2023-04-02T11:25:00.616Z,100.00
2023-04-02T11:27:32.290Z,100.00
2023-04-02T11:30:08.210Z,100.00
2023-04-02T11:32:42.722Z,100.00
2023-04-02T11:35:36.559Z,100.00
2023-04-02T11:38:39.268Z,100.00
2023-04-02T11:41:11.582Z,100.00
2023-04-02T11:43:52.852Z,100.00
2023-04-02T11:46:48.203Z,100.00
2023-04-02T11:50:01.857Z,100.00
2023-04-02T11:52:36.941Z,100.00
2023-04-02T11:55:25.222Z,100.00
2023-04-02T11:58:24.627Z,100.00
2023-04-02T12:01:31.195Z,100.00
2023-04-02T12:04:23.334Z,100.00
2023-04-02T12:07:10.828Z,100.00
2023-04-02T12:09:48.215Z,100.00
2023-04-02T12:12:28.761Z,100.00
2023-04-02T12:15:02.086Z,100.00
2023-04-02T12:17:34.091Z,100.00
2023-04-02T12:20:09.667Z,100.00
2023-04-02T12:22:43.563Z,100.00
2023-04-02T12:25:29.496Z,100.00
2023-04-02T12:28:17.989Z,100.00
2023-04-02T12:30:52.412Z,100.00
2023-04-02T12:33:33.970Z,100.00
2023-04-02T12:36:04.940Z,100.00
2023-04-02T12:38:37.447Z,100.00
2023-04-02T12:41:09.484Z,100.00
2023-04-02T12:43:40.594Z,100.00
2023-04-02T12:46:17.457Z,100.00
2023-04-02T12:48:47.252Z,100.00
2023-04-02T12:51:17.698Z,100.00
2023-04-02T12:53:53.423Z,100.00
2023-04-02T12:56:27.407Z,100.00
2023-04-02T12:58:58.288Z,100.00
2023-04-02T13:01:32.220Z,100.00
2023-04-02T13:04:03.791Z,97.04
2023-04-02T13:06:33.642Z,95.80
2023-04-02T13:09:05.298Z,92.01
2023-04-02T13:11:39.578Z,91.11
2023-04-02T13:14:18.755Z,91.66
2023-04-02T13:16:51.359Z,93.12
2023-04-02T13:19:29.144Z,94.87
2023-04-02T13:22:00.413Z,93.02
2023-04-02T13:24:31.745Z,90.34
2023-04-02T13:27:03.195Z,90.83
2023-04-02T13:29:34.227Z,93.47
2023-04-02T13:32:08.785Z,96.22
2023-04-02T13:34:38.451Z,100.00
2023-04-02T13:37:08.142Z,100.00
2023-04-02T13:39:37.829Z,100.00
2023-04-02T13:42:09.022Z,100.00
2023-04-02T13:44:39.829Z,100.00
2023-04-02T13:47:17.281Z,100.00
2023-04-02T13:49:46.983Z,99.71
2023-04-02T13:52:18.633Z,96.59
2023-04-02T13:54:51.640Z,95.54
2023-04-02T13:57:21.738Z,92.96
2023-04-02T13:59:51.440Z,89.58
2023-04-02T14:02:27.612Z,90.03
2023-04-02T14:05:10.363Z,89.14
2023-04-02T14:07:54.827Z,89.25
2023-04-02T14:10:31.933Z,91.11
2023-04-02T14:13:14.910Z,94.78
2023-04-02T14:15:57.590Z,96.88
2023-04-02T14:18:45.655Z,97.03
2023-04-02T14:21:22.290Z,97.64
2023-04-02T14:24:05.786Z,95.52
2023-04-02T14:26:44.488Z,95.77
2023-04-02T14:29:19.281Z,93.20
2023-04-02T14:31:58.373Z,90.23
2023-04-02T14:34:38.884Z,89.26
2023-04-02T14:37:17.340Z,88.22
2023-04-02T14:39:56.377Z,87.75
2023-04-02T14:42:33.787Z,86.58
2023-04-02T14:45:07.978Z,87.95
2023-04-02T14:47:42.535Z,88.17
2023-04-02T14:50:20.221Z,88.83
2023-04-02T14:52:54.673Z,90.05
2023-04-02T14:55:30.611Z,91.61
2023-04-02T14:58:07.023Z,94.85
2023-04-02T15:00:40.577Z,97.15
2023-04-02T15:03:16.537Z,96.58
2023-04-02T15:05:50.628Z,95.72
2023-04-02T15:08:25.988Z,96.50
2023-04-02T15:11:07.872Z,94.94
2023-04-02T15:13:40.710Z,95.12
2023-04-02T15:16:16.179Z,93.58
2023-04-02T15:18:45.931Z,91.03
2023-04-02T15:21:49.837Z,90.61
2023-04-02T15:24:33.536Z,89.65
2023-04-02T15:27:23.907Z,88.50
2023-04-02T15:29:59.451Z,91.50
2023-04-02T15:32:38.154Z,91.61
2023-04-02T15:35:20.343Z,91.79
2023-04-02T15:38:01.190Z,90.51
2023-04-02T15:40:49.446Z,89.70
2023-04-02T15:43:24.791Z,89.85
2023-04-02T15:46:03.881Z,89.88
2023-04-02T15:48:55.642Z,90.76
2023-04-02T15:51:41.544Z,92.42
2023-04-02T15:54:27.166Z,92.41
2023-04-02T15:57:12.162Z,92.63
2023-04-02T16:00:20.648Z,93.87
2023-04-02T16:03:14.164Z,92.79
2023-04-02T16:05:51.681Z,92.03
2023-04-02T16:08:50.635Z,91.96
2023-04-02T16:11:23.151Z,91.94
2023-04-02T16:13:53.176Z,91.89
2023-04-02T16:16:26.020Z,92.56
2023-04-02T16:19:01.766Z,92.64
2023-04-02T16:21:35.597Z,93.33
2023-04-02T16:24:05.618Z,94.93
2023-04-02T16:26:52.315Z,98.12
2023-04-02T16:29:55.082Z,100.00
2023-04-02T16:32:41.073Z,100.00
2023-04-02T16:35:41.944Z,100.00
2023-04-02T16:38:24.071Z,100.00
2023-04-02T16:41:08.401Z,100.00
2023-04-02T16:43:52.520Z,100.00
2023-04-02T16:46:38.992Z,100.00
2023-04-02T16:49:23.636Z,100.00
2023-04-02T16:52:05.162Z,100.00
2023-04-02T16:54:41.644Z,100.00
2023-04-02T16:57:23.182Z,100.00
2023-04-02T17:00:03.763Z,100.00
2023-04-02T17:02:47.522Z,100.00
2023-04-02T17:05:32.472Z,100.00
2023-04-02T17:08:14.154Z,100.00
2023-04-02T17:10:52.600Z,100.00
2023-04-02T17:13:29.952Z,100.00
2023-04-02T17:16:14.656Z,100.00
2023-04-02T17:18:49.008Z,100.00
2023-04-02T17:21:23.003Z,100.00
2023-04-02T17:23:56.956Z,100.00
2023-04-02T17:26:30.246Z,100.00
2023-04-02T17:29:03.493Z,100.00
2023-04-02T17:31:37.584Z,100.00
2023-04-02T17:34:15.809Z,100.00
2023-04-02T17:36:52.008Z,100.00
2023-04-02T17:39:28.649Z,100.00
2023-04-02T17:42:05.713Z,100.00
2023-04-02T17:44:47.826Z,100.00
2023-04-02T17:47:23.592Z,100.00
2023-04-02T17:50:05.064Z,100.00
2023-04-02T17:52:40.660Z,100.00
2023-04-02T17:55:22.161Z,100.00
2023-04-02T17:58:05.443Z,100.00
2023-04-02T18:00:46.754Z,100.00
2023-04-02T18:03:44.278Z,100.00
2023-04-02T18:06:18.776Z,100.00
2023-04-02T18:09:04.397Z,100.00
2023-04-02T18:11:44.644Z,100.00
2023-04-02T18:14:31.948Z,100.00
2023-04-02T18:17:11.193Z,100.00
2023-04-02T18:19:51.176Z,100.00
2023-04-02T18:22:31.443Z,100.00
2023-04-02T18:25:25.090Z,100.00
2023-04-02T18:28:07.329Z,100.00
2023-04-02T18:30:41.632Z,100.00
2023-04-02T18:33:31.961Z,100.00
2023-04-02T18:36:09.322Z,100.00
2023-04-02T18:38:45.653Z,100.00
2023-04-02T18:41:32.057Z,100.00
2023-04-02T18:44:17.797Z,100.00
2023-04-02T18:46:53.095Z,100.00
2023-04-02T18:49:29.869Z,100.00
2023-04-02T18:52:05.203Z,100.00
2023-04-02T18:54:38.434Z,100.00
2023-04-02T18:57:14.517Z,100.00
2023-04-02T18:59:49.271Z,100.00
2023-04-02T19:02:45.610Z,100.00
2023-04-02T19:05:23.205Z,100.00
2023-04-02T19:08:02.743Z,100.00
2023-04-02T19:10:36.355Z,100.00
2023-04-02T19:13:10.891Z,100.00
2023-04-02T19:15:55.267Z,100.00
2023-04-02T19:18:33.340Z,100.00
2023-04-02T19:21:15.342Z,100.00
2023-04-02T19:24:02.561Z,100.00
2023-04-02T19:26:38.754Z,100.00
2023-04-02T19:29:13.717Z,100.00
2023-04-02T19:31:52.973Z,100.00
2023-04-02T19:34:31.246Z,100.00
2023-04-02T19:37:08.518Z,99.26
2023-04-02T19:40:04.755Z,98.07
2023-04-02T19:42:46.431Z,97.94
2023-04-02T19:45:36.417Z,97.05
2023-04-02T19:48:14.203Z,96.93
2023-04-02T19:50:44.427Z,98.45
2023-04-02T19:53:14.554Z,98.37
2023-04-02T19:55:47.799Z,98.62
2023-04-02T19:58:25.785Z,98.25
2023-04-02T20:00:55.578Z,98.11
2023-04-02T20:03:25.610Z,98.14
2023-04-02T20:05:57.048Z,98.51
2023-04-02T20:08:26.725Z,100.00
2023-04-02T20:11:00.236Z,100.00
2023-04-02T20:13:30.801Z,100.00
2023-04-02T20:16:02.649Z,100.00
2023-04-02T20:18:33.006Z,100.00
2023-04-02T20:21:07.741Z,100.00
2023-04-02T20:23:38.518Z,100.00
2023-04-02T20:26:11.791Z,100.00
2023-04-02T20:28:42.090Z,100.00
2023-04-02T20:31:13.994Z,100.00
2023-04-02T20:33:44.586Z,100.00
2023-04-02T20:36:16.519Z,100.00
2023-04-02T20:38:46.677Z,100.00
2023-04-02T20:41:18.956Z,100.00
2023-04-02T20:43:50.080Z,100.00
2023-04-02T20:46:20.240Z,100.00
2023-04-02T20:48:49.962Z,100.00
2023-04-02T20:51:19.943Z,100.00
2023-04-02T20:53:49.590Z,100.00
2023-04-02T20:56:23.455Z,100.00
2023-04-02T20:58:53.926Z,100.00
2023-04-02T21:01:26.683Z,100.00
2023-04-02T21:03:58.043Z,100.00
2023-04-02T21:06:29.938Z,100.00
2023-04-02T21:08:59.708Z,100.00
2023-04-02T21:11:32.051Z,100.00
2023-04-02T21:14:01.752Z,100.00
2023-04-02T21:16:33.276Z,100.00
2023-04-02T21:19:05.440Z,100.00
2023-04-02T21:21:36.384Z,100.00
2023-04-02T21:24:08.566Z,100.00
2023-04-02T21:26:42.860Z,100.00
2023-04-02T21:29:14.455Z,100.00
2023-04-02T21:31:45.146Z,100.00
2023-04-02T21:34:17.320Z,100.00
2023-04-02T21:36:50.491Z,100.00
2023-04-02T21:39:22.419Z,100.00
2023-04-02T21:41:56.145Z,100.00
2023-04-02T21:44:27.139Z,100.00
2023-04-02T21:46:57.005Z,100.00
2023-04-02T21:49:27.572Z,100.00
2023-04-02T21:51:57.306Z,100.00
2023-04-02T21:54:26.957Z,100.00
2023-04-02T21:56:59.858Z,100.00
2023-04-02T21:59:29.759Z,100.00
2023-04-02T22:01:59.424Z,100.00
2023-04-02T22:04:30.805Z,100.00
2023-04-02T22:07:00.570Z,100.00
2023-04-02T22:09:30.941Z,100.00
2023-04-02T22:12:03.241Z,100.00
2023-04-02T22:14:33.429Z,100.00
2023-04-02T22:17:04.143Z,100.00
2023-04-02T22:19:33.935Z,100.00
2023-04-02T22:22:03.787Z,100.00
2023-04-02T22:24:33.478Z,100.00
2023-04-02T22:27:06.061Z,100.00
2023-04-02T22:29:36.454Z,100.00
2023-04-02T22:32:06.125Z,100.00
2023-04-02T22:34:36.963Z,100.00
2023-04-02T22:37:06.946Z,100.00
2023-04-02T22:39:36.629Z,100.00
2023-04-02T22:42:09.095Z,100.00
2023-04-02T22:44:38.744Z,100.00
2023-04-02T22:47:08.424Z,100.00
2023-04-02T22:49:38.124Z,100.00
2023-04-02T22:52:09.215Z,100.00
2023-04-02T22:54:39.134Z,100.00
2023-04-02T22:57:11.470Z,100.00
2023-04-02T22:59:41.215Z,100.00
2023-04-02T23:02:10.852Z,100.00
2023-04-02T23:04:40.638Z,100.00
2023-04-02T23:07:10.369Z,100.00
2023-04-02T23:09:40.060Z,100.00
2023-04-02T23:12:12.486Z,100.00
2023-04-02T23:14:42.155Z,100.00
2023-04-02T23:17:11.896Z,100.00
2023-04-02T23:19:41.714Z,100.00
2023-04-02T23:22:11.541Z,100.00
2023-04-02T23:24:41.221Z,100.00
2023-04-02T23:27:13.468Z,100.00
2023-04-02T23:29:43.089Z,100.00
2023-04-02T23:32:12.824Z,100.00
2023-04-02T23:34:42.519Z,100.00
2023-04-02T23:37:12.546Z,100.00
2023-04-02T23:39:42.204Z,100.00
2023-04-02T23:42:14.692Z,100.00
2023-04-02T23:44:44.350Z,100.00
2023-04-02T23:47:14.038Z,100.00
2023-04-02T23:49:48.030Z,100.00
2023-04-02T23:52:18.325Z,100.00
2023-04-02T23:54:48.006Z,100.00
2023-04-02T23:57:20.537Z,100.00
2023-04-02T23:59:50.383Z,100.00
